createdAt,value
2022-08-28T00:00:52.900Z,45.10
2022-08-28T00:03:23.147Z,45.30
2022-08-28T00:05:51.919Z,45.10
2022-08-28T00:08:20.727Z,45.30
2022-08-28T00:10:50.034Z,45.20
2022-08-28T00:13:23.366Z,45.10
2022-08-28T00:16:00.811Z,44.80
2022-08-28T00:18:32.327Z,44.80
2022-08-28T00:21:02.577Z,44.90
2022-08-28T00:23:42.754Z,45.00
2022-08-28T00:26:33.709Z,44.90
2022-08-28T00:29:04.045Z,45.10
2022-08-28T00:31:32.725Z,45.50
2022-08-28T00:34:03.199Z,45.30
2022-08-28T00:36:32.057Z,45.40
2022-08-28T00:39:00.973Z,45.30
2022-08-28T00:41:31.638Z,45.30
2022-08-28T00:44:12.512Z,45.40
2022-08-28T00:46:43.105Z,45.60
2022-08-28T00:49:16.361Z,46.00
2022-08-28T00:52:04.203Z,45.80
2022-08-28T00:54:36.988Z,45.80
2022-08-28T00:57:11.398Z,46.20
2022-08-28T00:59:40.363Z,46.10
2022-08-28T01:02:09.184Z,46.30
2022-08-28T01:04:40.555Z,46.20
2022-08-28T01:07:15.050Z,46.30
2022-08-28T01:09:54.552Z,46.40
2022-08-28T01:12:29.997Z,46.50
2022-08-28T01:15:04.532Z,46.40
2022-08-28T01:17:36.660Z,46.50
2022-08-28T01:20:17.434Z,46.70
2022-08-28T01:23:00.185Z,46.40
2022-08-28T01:25:35.075Z,46.60
2022-08-28T01:28:10.460Z,46.30
2022-08-28T01:30:43.182Z,46.60
2022-08-28T01:33:14.537Z,46.40
2022-08-28T01:35:48.961Z,46.60
2022-08-28T01:38:20.273Z,46.60
2022-08-28T01:40:59.529Z,46.70
2022-08-28T01:43:29.831Z,46.60
2022-08-28T01:46:02.862Z,46.50
2022-08-28T01:48:41.727Z,46.50
2022-08-28T01:51:12.678Z,46.50
2022-08-28T01:53:46.479Z,46.70
2022-08-28T01:56:19.242Z,46.60
2022-08-28T01:58:49.109Z,46.50
2022-08-28T02:01:21.690Z,46.60
2022-08-28T02:03:53.078Z,47.30
2022-08-28T02:06:22.608Z,46.40
2022-08-28T02:08:55.303Z,46.50
2022-08-28T02:11:27.609Z,46.50
2022-08-28T02:13:56.375Z,46.50
2022-08-28T02:16:25.799Z,46.70
2022-08-28T02:18:54.859Z,46.60
2022-08-28T02:21:24.526Z,46.40
2022-08-28T02:23:53.879Z,46.90
2022-08-28T02:26:23.548Z,47.50
2022-08-28T02:28:53.431Z,46.80
2022-08-28T02:31:22.264Z,47.00
2022-08-28T02:33:50.883Z,47.00
2022-08-28T02:36:20.365Z,47.20
2022-08-28T02:38:54.040Z,47.20
2022-08-28T02:41:25.949Z,47.30
2022-08-28T02:43:57.291Z,47.10
2022-08-28T02:46:26.442Z,47.50
2022-08-28T02:48:56.291Z,47.20
2022-08-28T02:51:25.054Z,47.70
2022-08-28T02:53:53.635Z,47.30
2022-08-28T02:56:22.168Z,47.30
2022-08-28T02:58:50.945Z,47.60
2022-08-28T03:01:21.386Z,47.40
2022-08-28T03:03:49.954Z,47.40
2022-08-28T03:06:18.720Z,47.50
2022-08-28T03:08:47.373Z,47.60
2022-08-28T03:11:16.148Z,47.90
2022-08-28T03:13:44.939Z,47.80
2022-08-28T03:16:14.263Z,47.90
2022-08-28T03:18:44.358Z,48.10
2022-08-28T03:21:13.345Z,48.30
2022-08-28T03:23:41.024Z,48.20
2022-08-28T03:26:12.847Z,48.30
2022-08-28T03:28:45.712Z,48.40
2022-08-28T03:31:19.796Z,48.30
2022-08-28T03:33:50.430Z,48.30
2022-08-28T03:36:26.159Z,48.40
2022-08-28T03:38:59.318Z,48.20
2022-08-28T03:41:31.369Z,48.70
2022-08-28T03:44:03.026Z,48.50
2022-08-28T03:46:33.842Z,48.60
2022-08-28T03:49:06.646Z,48.70
2022-08-28T03:51:36.697Z,48.70
2022-08-28T03:54:06.140Z,48.70
2022-08-28T03:56:34.958Z,49.60
2022-08-28T03:59:06.235Z,48.90
2022-08-28T04:01:38.159Z,49.00
2022-08-28T04:04:09.052Z,48.90
2022-08-28T04:06:37.831Z,49.10
2022-08-28T04:09:07.748Z,49.00
2022-08-28T04:11:40.803Z,49.50
2022-08-28T04:14:09.638Z,49.10
2022-08-28T04:16:38.605Z,49.00
2022-08-28T04:19:08.581Z,50.20
2022-08-28T04:21:39.697Z,49.20
2022-08-28T04:24:09.816Z,49.40
2022-08-28T04:26:38.738Z,49.30
2022-08-28T04:29:08.664Z,49.60
2022-08-28T04:31:37.508Z,49.60
2022-08-28T04:34:10.999Z,50.40
2022-08-28T04:36:39.910Z,49.80
2022-08-28T04:39:11.175Z,49.80
2022-08-28T04:41:40.201Z,49.80
2022-08-28T04:44:10.539Z,49.80
2022-08-28T04:46:39.591Z,50.10
2022-08-28T04:49:09.675Z,50.10
2022-08-28T04:51:41.988Z,49.80
2022-08-28T04:54:11.858Z,50.30
2022-08-28T04:56:41.997Z,50.20
2022-08-28T04:59:11.706Z,50.20
2022-08-28T05:01:43.613Z,50.20
2022-08-28T05:04:13.887Z,50.00
2022-08-28T05:06:46.119Z,50.40
2022-08-28T05:09:17.391Z,50.00
2022-08-28T05:11:47.017Z,50.00
2022-08-28T05:14:16.958Z,49.70
2022-08-28T05:16:48.830Z,49.70
2022-08-28T05:19:21.599Z,49.80
2022-08-28T05:21:50.355Z,50.00
2022-08-28T05:24:20.253Z,50.20
2022-08-28T05:26:49.069Z,49.70
2022-08-28T05:29:18.587Z,50.30
2022-08-28T05:31:47.813Z,50.00
2022-08-28T05:34:18.362Z,49.90
2022-08-28T05:36:46.907Z,50.30
2022-08-28T05:39:16.215Z,49.80
2022-08-28T05:41:47.292Z,49.80
2022-08-28T05:44:19.733Z,50.20
2022-08-28T05:46:49.678Z,50.00
2022-08-28T05:49:20.738Z,50.00
2022-08-28T05:51:50.438Z,50.10
2022-08-28T05:54:19.566Z,50.10
2022-08-28T05:56:48.429Z,50.20
2022-08-28T05:59:18.061Z,49.90
2022-08-28T06:01:49.313Z,50.20
2022-08-28T06:04:23.785Z,50.20
2022-08-28T06:06:53.001Z,49.90
2022-08-28T06:09:29.115Z,50.10
2022-08-28T06:12:02.146Z,49.80
2022-08-28T06:14:32.676Z,49.80
2022-08-28T06:17:02.822Z,49.80
2022-08-28T06:19:41.237Z,49.50
2022-08-28T06:22:12.379Z,49.70
2022-08-28T06:24:41.609Z,49.50
2022-08-28T06:27:10.229Z,49.50
2022-08-28T06:29:39.889Z,49.30
2022-08-28T06:32:09.190Z,49.30
2022-08-28T06:34:39.446Z,49.20
2022-08-28T06:37:09.725Z,49.40
2022-08-28T06:39:38.567Z,49.50
2022-08-28T06:42:07.320Z,49.20
2022-08-28T06:44:38.227Z,49.40
2022-08-28T06:47:06.983Z,49.10
2022-08-28T06:49:35.734Z,49.00
2022-08-28T06:52:05.732Z,49.00
2022-08-28T06:54:34.733Z,48.90
2022-08-28T06:57:03.325Z,48.60
2022-08-28T06:59:31.970Z,49.10
2022-08-28T07:02:00.788Z,48.30
2022-08-28T07:04:29.837Z,48.00
2022-08-28T07:06:58.467Z,47.60
2022-08-28T07:09:28.620Z,46.70
2022-08-28T07:11:57.175Z,46.10
2022-08-28T07:14:26.374Z,45.80
2022-08-28T07:16:55.983Z,44.60
2022-08-28T07:19:24.764Z,44.10
2022-08-28T07:21:53.603Z,44.10
2022-08-28T07:24:23.408Z,43.00
2022-08-28T07:26:54.399Z,43.90
2022-08-28T07:29:23.997Z,42.30
2022-08-28T07:31:56.207Z,42.00
2022-08-28T07:34:27.235Z,41.40
2022-08-28T07:36:58.262Z,40.70
2022-08-28T07:39:27.121Z,39.40
2022-08-28T07:41:57.429Z,38.50
2022-08-28T07:44:44.139Z,37.70
2022-08-28T07:47:13.663Z,37.20
2022-08-28T07:49:42.783Z,36.50
2022-08-28T07:52:13.233Z,36.00
2022-08-28T07:54:42.068Z,36.00
2022-08-28T07:57:11.956Z,35.40
2022-08-28T07:59:42.959Z,35.00
2022-08-28T08:02:12.291Z,34.90
2022-08-28T08:04:41.615Z,34.80
2022-08-28T08:07:12.896Z,34.90
2022-08-28T08:09:44.227Z,33.80
2022-08-28T08:12:15.669Z,33.80
2022-08-28T08:14:45.420Z,34.70
2022-08-28T08:17:14.067Z,33.70
2022-08-28T08:19:42.624Z,33.20
2022-08-28T08:22:11.414Z,33.00
2022-08-28T08:24:40.008Z,33.30
2022-08-28T08:27:10.390Z,33.00
2022-08-28T08:29:40.590Z,33.80
2022-08-28T08:32:12.483Z,34.20
2022-08-28T08:34:45.831Z,33.70
2022-08-28T08:37:15.404Z,33.30
2022-08-28T08:39:45.061Z,33.40
2022-08-28T08:42:26.054Z,33.20
2022-08-28T08:44:59.830Z,33.40
2022-08-28T08:47:39.429Z,33.50
2022-08-28T08:50:16.081Z,32.80
2022-08-28T08:53:09.674Z,32.40
2022-08-28T08:55:46.514Z,32.60
2022-08-28T08:58:25.125Z,34.10
2022-08-28T09:01:05.252Z,34.70
2022-08-28T09:03:56.265Z,35.10
2022-08-28T09:06:36.762Z,34.70
2022-08-28T09:09:18.020Z,34.00
2022-08-28T09:11:57.051Z,32.60
2022-08-28T09:14:42.808Z,31.40
2022-08-28T09:17:19.007Z,31.50
2022-08-28T09:19:48.567Z,31.40
2022-08-28T09:22:18.679Z,31.20
2022-08-28T09:24:47.413Z,31.60
2022-08-28T09:27:28.614Z,31.80
2022-08-28T09:30:07.967Z,31.90
2022-08-28T09:32:43.885Z,32.00
2022-08-28T09:35:19.020Z,31.90
2022-08-28T09:37:47.792Z,31.40
2022-08-28T09:40:23.813Z,32.20
2022-08-28T09:43:24.583Z,31.70
2022-08-28T09:45:59.333Z,30.90
2022-08-28T09:48:36.981Z,30.60
2022-08-28T09:51:08.890Z,30.30
2022-08-28T09:53:57.120Z,29.80
2022-08-28T09:56:32.089Z,30.00
2022-08-28T09:59:06.600Z,29.50
2022-08-28T10:01:53.353Z,29.10
2022-08-28T10:04:52.833Z,29.80
2022-08-28T10:07:34.446Z,29.90
2022-08-28T10:10:21.764Z,29.60
2022-08-28T10:13:07.108Z,29.80
2022-08-28T10:15:59.788Z,30.30
2022-08-28T10:18:41.004Z,30.60
2022-08-28T10:21:21.700Z,30.10
2022-08-28T10:24:14.115Z,29.30
2022-08-28T10:26:56.842Z,29.20
2022-08-28T10:29:48.367Z,29.10
2022-08-28T10:32:48.900Z,28.50
2022-08-28T10:35:24.734Z,28.30
2022-08-28T10:38:09.272Z,28.40
2022-08-28T10:40:42.952Z,28.90
2022-08-28T10:43:17.976Z,29.30
2022-08-28T10:45:51.668Z,29.70
2022-08-28T10:48:28.109Z,29.40
2022-08-28T10:51:03.804Z,29.60
2022-08-28T10:53:40.766Z,29.80
2022-08-28T10:56:18.462Z,29.40
2022-08-28T10:58:53.134Z,29.70
2022-08-28T11:01:30.359Z,30.80
2022-08-28T11:04:06.825Z,30.80
2022-08-28T11:06:43.048Z,31.60
2022-08-28T11:09:27.128Z,32.20
2022-08-28T11:12:02.042Z,33.00
2022-08-28T11:14:47.545Z,32.20
2022-08-28T11:17:41.792Z,33.10
2022-08-28T11:20:17.624Z,33.10
2022-08-28T11:22:53.025Z,34.00
2022-08-28T11:25:34.103Z,33.80
2022-08-28T11:28:19.738Z,34.20
2022-08-28T11:31:25.689Z,33.20
2022-08-28T11:34:00.965Z,33.20
2022-08-28T11:37:01.988Z,34.10
2022-08-28T11:39:30.988Z,34.50
2022-08-28T11:42:38.599Z,33.40
2022-08-28T11:45:07.995Z,33.20
2022-08-28T11:48:00.616Z,33.10
2022-08-28T11:50:53.906Z,32.50
2022-08-28T11:53:50.115Z,32.90
2022-08-28T11:56:45.573Z,33.50
2022-08-28T12:00:00.463Z,33.10
2022-08-28T12:03:08.727Z,34.00
2022-08-28T12:05:54.335Z,35.10
2022-08-28T12:09:04.994Z,36.60
2022-08-28T12:12:04.749Z,37.20
2022-08-28T12:15:08.770Z,37.90
2022-08-28T12:17:52.434Z,38.40
2022-08-28T12:20:49.623Z,39.50
2022-08-28T12:23:42.624Z,39.70
2022-08-28T12:26:25.103Z,41.70
2022-08-28T12:28:58.396Z,41.10
2022-08-28T12:32:13.596Z,41.70
2022-08-28T12:35:08.691Z,42.90
2022-08-28T12:37:51.648Z,42.00
2022-08-28T12:40:26.615Z,42.00
2022-08-28T12:43:00.208Z,42.20
2022-08-28T12:45:36.608Z,41.90
2022-08-28T12:48:17.853Z,42.30
2022-08-28T12:50:46.689Z,42.40
2022-08-28T12:53:19.597Z,42.00
2022-08-28T12:55:48.543Z,41.80
2022-08-28T12:58:31.849Z,42.10
2022-08-28T13:01:07.092Z,41.30
2022-08-28T13:03:45.975Z,42.00
2022-08-28T13:06:15.385Z,40.60
2022-08-28T13:08:44.178Z,41.20
2022-08-28T13:11:20.526Z,41.00
2022-08-28T13:13:52.331Z,41.50
2022-08-28T13:16:40.978Z,41.50
2022-08-28T13:19:28.570Z,42.00
2022-08-28T13:22:02.072Z,41.20
2022-08-28T13:24:47.947Z,42.00
2022-08-28T13:27:25.863Z,41.60
2022-08-28T13:30:06.049Z,41.00
2022-08-28T13:32:38.954Z,41.20
2022-08-28T13:35:41.141Z,41.80
2022-08-28T13:38:13.821Z,40.60
2022-08-28T13:40:57.836Z,40.40
2022-08-28T13:43:30.750Z,40.60
2022-08-28T13:45:59.405Z,39.60
2022-08-28T13:48:29.343Z,40.00
2022-08-28T13:51:06.296Z,40.40
2022-08-28T13:53:39.977Z,40.00
2022-08-28T13:56:09.267Z,39.60
2022-08-28T13:58:37.896Z,39.20
2022-08-28T14:01:07.853Z,39.60
2022-08-28T14:03:35.573Z,40.20
2022-08-28T14:06:11.266Z,38.50
2022-08-28T14:08:40.772Z,38.70
2022-08-28T14:11:12.706Z,39.40
2022-08-28T14:13:47.294Z,39.20
2022-08-28T14:16:25.738Z,39.30
2022-08-28T14:18:55.542Z,38.70
2022-08-28T14:21:25.502Z,38.40
2022-08-28T14:23:54.115Z,39.70
2022-08-28T14:26:22.967Z,40.70
2022-08-28T14:28:51.603Z,40.80
2022-08-28T14:31:20.272Z,41.80
2022-08-28T14:33:55.534Z,41.80
2022-08-28T14:36:29.970Z,42.00
2022-08-28T14:39:06.028Z,42.10
2022-08-28T14:41:35.709Z,42.50
2022-08-28T14:44:05.794Z,42.90
2022-08-28T14:46:37.592Z,43.70
2022-08-28T14:49:10.234Z,43.80
2022-08-28T14:51:42.808Z,44.60
2022-08-28T14:54:14.454Z,45.00
2022-08-28T14:56:44.313Z,44.90
2022-08-28T14:59:24.035Z,44.70
2022-08-28T15:01:55.619Z,44.50
2022-08-28T15:04:26.625Z,44.60
2022-08-28T15:07:00.581Z,44.20
2022-08-28T15:09:30.088Z,44.00
2022-08-28T15:11:58.665Z,44.10
2022-08-28T15:14:28.050Z,44.50
2022-08-28T15:16:56.753Z,43.90
2022-08-28T15:19:25.721Z,44.70
2022-08-28T15:21:57.596Z,42.70
2022-08-28T15:24:31.503Z,43.20
2022-08-28T15:27:00.587Z,42.90
2022-08-28T15:29:30.878Z,41.90
2022-08-28T15:32:00.742Z,42.80
2022-08-28T15:34:30.279Z,42.60
2022-08-28T15:37:01.380Z,42.60
2022-08-28T15:39:49.304Z,42.60
2022-08-28T15:42:18.120Z,43.20
2022-08-28T15:44:46.711Z,43.40
2022-08-28T15:47:16.539Z,42.70
2022-08-28T15:49:49.644Z,43.70
2022-08-28T15:52:20.907Z,43.50
2022-08-28T15:54:51.033Z,43.80
2022-08-28T15:57:19.856Z,44.50
2022-08-28T15:59:50.740Z,44.10
2022-08-28T16:02:23.905Z,43.90
2022-08-28T16:04:53.908Z,44.50
2022-08-28T16:07:24.791Z,44.30
2022-08-28T16:09:54.028Z,44.30
2022-08-28T16:12:22.892Z,43.80
2022-08-28T16:14:51.468Z,44.90
2022-08-28T16:17:20.404Z,44.40
2022-08-28T16:19:49.044Z,43.70
2022-08-28T16:22:18.840Z,43.80
2022-08-28T16:24:48.838Z,43.70
2022-08-28T16:27:18.116Z,44.50
2022-08-28T16:29:49.554Z,44.10
2022-08-28T16:32:22.994Z,43.90
2022-08-28T16:34:51.867Z,43.60
2022-08-28T16:37:21.377Z,43.70
2022-08-28T16:39:57.085Z,43.80
2022-08-28T16:42:29.752Z,43.80
2022-08-28T16:45:02.062Z,43.30
2022-08-28T16:47:32.438Z,43.30
2022-08-28T16:50:04.100Z,43.70
2022-08-28T16:52:33.124Z,43.80
2022-08-28T16:55:03.164Z,43.80
2022-08-28T16:57:31.739Z,44.30
2022-08-28T17:00:01.124Z,44.80
2022-08-28T17:02:33.574Z,45.60
2022-08-28T17:05:05.454Z,45.90
2022-08-28T17:07:35.015Z,46.70
2022-08-28T17:10:07.440Z,47.20
2022-08-28T17:12:36.084Z,48.00
2022-08-28T17:15:06.152Z,47.60
2022-08-28T17:17:35.074Z,48.10
2022-08-28T17:20:05.106Z,47.60
2022-08-28T17:22:33.035Z,46.80
2022-08-28T17:25:09.484Z,45.80
2022-08-28T17:27:38.467Z,45.60
2022-08-28T17:30:09.448Z,45.40
2022-08-28T17:32:38.526Z,45.60
2022-08-28T17:35:08.082Z,46.10
2022-08-28T17:37:38.102Z,46.90
2022-08-28T17:40:11.897Z,49.00
2022-08-28T17:42:41.644Z,49.80
2022-08-28T17:45:11.477Z,50.20
2022-08-28T17:47:40.039Z,50.80
2022-08-28T17:50:10.067Z,50.70
2022-08-28T17:52:39.676Z,50.60
2022-08-28T17:55:10.312Z,51.80
2022-08-28T17:57:40.411Z,52.90
2022-08-28T18:00:16.134Z,53.70
2022-08-28T18:02:46.883Z,53.70
2022-08-28T18:05:15.786Z,53.30
2022-08-28T18:07:44.344Z,54.00
2022-08-28T18:10:14.900Z,53.80
2022-08-28T18:12:43.799Z,53.40
2022-08-28T18:15:14.966Z,52.80
2022-08-28T18:17:48.132Z,53.90
2022-08-28T18:20:18.303Z,54.20
2022-08-28T18:22:47.799Z,53.70
2022-08-28T18:25:32.793Z,53.80
2022-08-28T18:28:03.109Z,53.50
2022-08-28T18:30:31.733Z,54.10
2022-08-28T18:33:05.700Z,54.90
2022-08-28T18:35:37.189Z,54.70
2022-08-28T18:38:10.535Z,53.90
2022-08-28T18:40:40.910Z,54.10
2022-08-28T18:43:09.902Z,54.40
2022-08-28T18:45:39.451Z,56.30
2022-08-28T18:48:08.948Z,57.60
2022-08-28T18:50:38.022Z,57.60
2022-08-28T18:53:07.405Z,57.40
2022-08-28T18:55:36.057Z,57.90
2022-08-28T18:58:06.195Z,57.10
2022-08-28T19:00:36.235Z,56.90
2022-08-28T19:03:05.877Z,56.60
2022-08-28T19:05:37.057Z,55.80
2022-08-28T19:08:07.098Z,55.60
2022-08-28T19:10:37.927Z,55.90
2022-08-28T19:13:09.598Z,55.60
2022-08-28T19:15:38.769Z,55.80
2022-08-28T19:18:08.295Z,57.60
2022-08-28T19:20:36.904Z,57.60
2022-08-28T19:23:05.537Z,58.10
2022-08-28T19:25:34.533Z,57.90
2022-08-28T19:28:03.713Z,57.80
2022-08-28T19:30:35.788Z,58.00
2022-08-28T19:33:06.267Z,58.20
2022-08-28T19:35:35.197Z,58.00
2022-08-28T19:38:03.834Z,58.00
2022-08-28T19:40:33.666Z,57.60
2022-08-28T19:43:02.707Z,57.40
2022-08-28T19:45:36.016Z,58.50
2022-08-28T19:48:05.048Z,57.80
2022-08-28T19:50:33.686Z,57.70
2022-08-28T19:53:02.695Z,57.30
2022-08-28T19:55:32.025Z,57.00
2022-08-28T19:58:04.111Z,56.40
2022-08-28T20:00:35.451Z,56.10
2022-08-28T20:03:05.761Z,56.20
2022-08-28T20:05:34.989Z,55.30
2022-08-28T20:08:07.157Z,55.00
2022-08-28T20:10:38.983Z,54.80
2022-08-28T20:13:07.655Z,54.90
2022-08-28T20:15:36.579Z,54.70
2022-08-28T20:18:07.890Z,54.50
2022-08-28T20:20:37.395Z,54.40
2022-08-28T20:23:07.530Z,54.60
2022-08-28T20:25:36.401Z,54.60
2022-08-28T20:28:06.657Z,54.60
2022-08-28T20:30:35.555Z,54.60
2022-08-28T20:33:04.227Z,54.50
2022-08-28T20:35:34.274Z,54.50
2022-08-28T20:38:03.627Z,55.00
2022-08-28T20:40:32.602Z,54.40
2022-08-28T20:43:01.639Z,54.30
2022-08-28T20:45:31.048Z,54.10
2022-08-28T20:48:00.089Z,54.30
2022-08-28T20:50:28.849Z,54.40
2022-08-28T20:53:02.665Z,54.40
2022-08-28T20:55:31.641Z,55.20
2022-08-28T20:58:00.420Z,54.50
2022-08-28T21:00:29.302Z,54.90
2022-08-28T21:02:58.068Z,54.90
2022-08-28T21:05:27.329Z,55.80
2022-08-28T21:07:55.911Z,54.80
2022-08-28T21:10:26.047Z,54.80
2022-08-28T21:12:55.089Z,54.80
2022-08-28T21:15:23.977Z,55.00
2022-08-28T21:17:52.591Z,55.20
2022-08-28T21:20:22.303Z,55.40
2022-08-28T21:22:52.430Z,55.40
2022-08-28T21:25:24.595Z,55.70
2022-08-28T21:27:54.895Z,55.80
2022-08-28T21:30:24.270Z,55.60
2022-08-28T21:32:58.636Z,55.70
2022-08-28T21:35:27.286Z,55.50
2022-08-28T21:37:55.918Z,55.00
2022-08-28T21:40:24.848Z,54.80
2022-08-28T21:42:54.951Z,54.70
2022-08-28T21:45:23.619Z,54.90
2022-08-28T21:47:52.426Z,54.60
2022-08-28T21:50:21.545Z,55.10
2022-08-28T21:52:50.096Z,54.40
2022-08-28T21:55:18.914Z,54.50
2022-08-28T21:57:47.522Z,54.60
2022-08-28T22:00:23.964Z,54.40
2022-08-28T22:02:52.863Z,54.60
2022-08-28T22:05:21.813Z,54.40
2022-08-28T22:07:50.462Z,54.30
2022-08-28T22:10:19.338Z,54.10
2022-08-28T22:12:47.921Z,54.60
2022-08-28T22:15:17.868Z,55.00
2022-08-28T22:17:46.658Z,56.00
2022-08-28T22:20:15.293Z,56.30
2022-08-28T22:23:01.376Z,56.70
2022-08-28T22:25:30.309Z,57.10
2022-08-28T22:27:59.358Z,57.00
2022-08-28T22:30:29.490Z,56.70
2022-08-28T22:32:58.805Z,57.00
2022-08-28T22:35:27.984Z,57.30
2022-08-28T22:37:57.319Z,56.70
2022-08-28T22:40:27.679Z,57.30
2022-08-28T22:42:57.458Z,56.20
2022-08-28T22:45:26.392Z,56.10
2022-08-28T22:47:56.672Z,56.80
2022-08-28T22:50:25.371Z,56.40
2022-08-28T22:52:54.277Z,56.40
2022-08-28T22:55:23.937Z,57.20
2022-08-28T22:57:54.215Z,57.70
2022-08-28T23:00:27.629Z,57.60
2022-08-28T23:02:59.246Z,57.60
2022-08-28T23:05:30.564Z,57.60
2022-08-28T23:07:59.428Z,57.50
2022-08-28T23:10:48.363Z,57.40
2022-08-28T23:13:17.510Z,57.30
2022-08-28T23:15:48.984Z,57.10
2022-08-28T23:18:19.320Z,57.10
2022-08-28T23:20:50.730Z,57.10
2022-08-28T23:23:20.839Z,57.30
2022-08-28T23:25:50.530Z,57.00
2022-08-28T23:28:20.696Z,57.00
2022-08-28T23:30:49.840Z,56.90
2022-08-28T23:33:23.075Z,57.50
2022-08-28T23:35:53.337Z,57.10
2022-08-28T23:38:22.341Z,56.80
2022-08-28T23:40:51.054Z,57.10
2022-08-28T23:43:20.072Z,57.20
2022-08-28T23:45:49.246Z,57.50
2022-08-28T23:48:19.318Z,57.30
2022-08-28T23:50:48.134Z,57.20
2022-08-28T23:53:16.696Z,56.90
2022-08-28T23:55:45.888Z,57.00
2022-08-28T23:58:18.347Z,57.00
